Aviation Digital Data Service (ADDS)

Output produced by METARs form (0602 UTC 28 September 2022)
found at http://www.aviationweather.gov/metar/data/
 
VTBS 280530Z 30007KT 260V340 9999 FEW020 SCT035 31/21 Q1003 NOSIG
VTBS 280500Z 30008KT 260V340 9999 FEW020 SCT035 31/21 Q1004 NOSIG
VTBS 280430Z 30007KT 250V340 9999 FEW020 30/22 Q1004 NOSIG
VTBS 280400Z 30009KT 9999 FEW020 30/22 Q1005 NOSIG
VTBS 280330Z 30008KT 9999 FEW020 30/22 Q1005 NOSIG
VTBS 280300Z 30008KT 260V330 9999 FEW020 30/22 Q1005 NOSIG
VTBS 280230Z 30010KT 270V330 9999 FEW020 29/22 Q1005 NOSIG
VTBS 280200Z 30008KT 270V330 9999 FEW020 28/22 Q1005 NOSIG
VTBS 280130Z 29006KT 9999 FEW020 28/22 Q1005 NOSIG
VTBS 280100Z 28005KT 250V320 9999 FEW020 27/22 Q1004 NOSIG
VTBS 280030Z 27005KT 9999 FEW020 26/22 Q1004 NOSIG
VTBS 280000Z 26003KT 9999 FEW020 26/22 Q1004 NOSIG
VTBS 272330Z 26003KT 9999 FEW020 25/23 Q1004 NOSIG
VTBS 272300Z 25002KT 9999 FEW020 25/23 Q1004 NOSIG
VTBS 272230Z 28002KT 9999 FEW020 25/23 Q1004 NOSIG
VTBS 272200Z 26002KT 9999 FEW020 25/23 Q1004 NOSIG
VTBS 272130Z 28002KT 9999 FEW020 26/23 Q1004 NOSIG
VTBS 272100Z 25003KT 9999 FEW020 26/23 Q1004 NOSIG
VTBS 272030Z 27003KT 9999 FEW020 BKN070 26/23 Q1004 NOSIG
VTBS 272000Z 27005KT 240V300 9999 FEW020 BKN070 26/22 Q1004 NOSIG
VTBS 271930Z VRB01KT 9999 FEW020 BKN070 26/23 Q1004 NOSIG
VTBS 271900Z 27003KT 9999 FEW020 BKN070 26/23 Q1005 NOSIG
VTBS 271830Z 28002KT 9999 FEW020 BKN070 26/23 Q1005 NOSIG
VTBS 271800Z VRB02KT 9999 FEW020 BKN070 26/23 Q1006 NOSIG
VTBS 271730Z 27002KT 9999 FEW020 BKN100 26/23 Q1006 NOSIG
VTBS 271700Z 27003KT 9999 FEW020 BKN100 26/23 Q1007 NOSIG
VTBS 271630Z 25004KT 9999 FEW020 BKN100 26/23 Q1007 NOSIG
VTBS 271600Z 23003KT 9999 FEW020 BKN100 26/23 Q1007 NOSIG
VTBS 271530Z VRB02KT 9000 -RA FEW020 BKN070 26/23 Q1008 NOSIG
VTBS 271500Z 31002KT 9999 FEW020 BKN070 26/23 Q1008 NOSIG
VTBS 271430Z VRB02KT 9999 FEW020 26/23 Q1007 NOSIG
VTBS 271400Z 27002KT 9999 FEW020 BKN090 26/23 Q1007 NOSIG
VTBS 271330Z 25002KT 9999 FEW020 BKN090 26/23 Q1007 NOSIG
VTBS 271300Z 22002KT 9999 FEW020 BKN090 26/23 Q1007 NOSIG
VTBS 271230Z 21003KT 9000 FEW020 BKN090 26/23 Q1006 NOSIG
VTBS 271200Z 23003KT 9000 FEW020 BKN090 26/23 Q1006 RETS NOSIG
VTBS 271130Z 21003KT 8000 -TSRA FEW018CB SCT030 BKN090 25/23 Q1006 RERA BECMG TL1200 NSW
VTBS 271100Z 03007KT 300V090 1000 R19R/P2000N R19L/P2000N +TSRA SCT018CB BKN030 BKN070 25/23 Q1005 WS ALL RWY BECMG TL1130 3000 TSRA
VTBS 271030Z 22006KT 9000 -RA FEW020CB SCT030 28/24 Q1005 TEMPO FM1035 TL1110 3000 TSRA
VTBS 271000Z 24003KT 210V280 9000 VCSH FEW020 SCT090 29/24 Q1005 TEMPO FM1015 TL1100 4500 TSRA
VTBS 270930Z 24004KT 200V280 9000 FEW020 SCT090 29/24 Q1004 NOSIG
VTBS 270900Z 22004KT 190V250 8000 FEW015 SCT090 28/24 Q1004 NOSIG
VTBS 270830Z 22007KT 8000 FEW015 SCT090 28/24 Q1004 NOSIG
VTBS 270800Z 22007KT 8000 FEW015 SCT090 29/24 Q1005 NOSIG
VTBS 270730Z 20006KT 8000 FEW009 28/26 Q1005 NOSIG
VTBS 270700Z 20005KT 150V220 8000 FEW009 27/26 Q1005 NOSIG
VTBS 270630Z VRB03KT 8000 -RA FEW009 BKN080 27/26 Q1005 NOSIG
VTBS 270600Z 16005KT 080V240 8000 -RA FEW020CB BKN080 27/25 Q1006 NOSIG
VTBS 270530Z VRB01KT 8000 -RA FEW020CB BKN080 27/25 Q1007 RETS NOSIG
TAF VTBS 280500Z 2806/2912 30008KT 9999 FEW020 
     TEMPO 2808/2812 VRB15KT 3000 TSRA FEW018CB SCT030 BKN100 
     BECMG 2814/2816 22005KT -RA 
     BECMG 2822/2824 00000KT NSW 
     BECMG 2902/2904 20008KT